createdAt,value
2022-10-21T00:01:18.143Z,10.50
2022-10-21T00:06:16.159Z,10.40
2022-10-21T00:11:15.555Z,10.30
2022-10-21T00:16:15.558Z,10.30
2022-10-21T00:21:15.865Z,10.30
2022-10-21T00:26:17.087Z,10.20
2022-10-21T00:31:16.793Z,10.30
2022-10-21T00:36:15.738Z,10.30
2022-10-21T00:41:17.420Z,10.30
2022-10-21T00:46:18.406Z,10.50
2022-10-21T00:51:18.807Z,10.50
2022-10-21T00:56:24.415Z,10.70
2022-10-21T01:01:22.988Z,10.70
2022-10-21T01:06:25.672Z,10.70
2022-10-21T01:11:25.939Z,10.80
2022-10-21T01:16:34.544Z,10.70
2022-10-21T01:21:37.191Z,10.60
2022-10-21T01:27:17.298Z,10.50
2022-10-21T01:32:26.125Z,10.40
2022-10-21T01:37:28.295Z,10.50
2022-10-21T01:42:33.013Z,10.50
2022-10-21T01:47:35.408Z,10.50
2022-10-21T01:52:33.854Z,10.60
2022-10-21T01:57:37.801Z,10.70
2022-10-21T02:02:42.781Z,10.80
2022-10-21T02:07:40.770Z,10.90
2022-10-21T02:12:41.289Z,10.90
2022-10-21T02:17:47.303Z,11.00
2022-10-21T02:22:47.919Z,11.00
2022-10-21T02:27:46.318Z,10.90
2022-10-21T02:32:54.612Z,10.90
2022-10-21T02:37:59.685Z,10.90
2022-10-21T02:43:03.706Z,10.90
2022-10-21T02:48:04.174Z,11.00
2022-10-21T02:53:02.193Z,11.00
2022-10-21T02:58:00.163Z,11.00
2022-10-21T03:02:58.286Z,10.80
2022-10-21T03:07:58.018Z,10.80
2022-10-21T03:12:56.123Z,10.70
2022-10-21T03:17:54.137Z,10.70
2022-10-21T03:22:52.131Z,10.70
2022-10-21T03:27:52.562Z,10.70
2022-10-21T03:32:50.512Z,10.70
2022-10-21T03:37:48.652Z,10.80
2022-10-21T03:42:46.798Z,10.90
2022-10-21T03:47:48.100Z,11.00
2022-10-21T03:52:46.149Z,11.00
2022-10-21T03:57:44.018Z,11.00
2022-10-21T04:02:42.162Z,10.90
2022-10-21T04:07:41.745Z,10.80
2022-10-21T04:12:40.132Z,10.90
2022-10-21T04:17:38.548Z,10.90
2022-10-21T04:22:36.892Z,10.90
2022-10-21T04:27:38.990Z,10.90
2022-10-21T04:32:37.472Z,10.90
2022-10-21T04:37:39.985Z,10.80
2022-10-21T04:42:39.559Z,10.80
2022-10-21T04:47:38.006Z,10.80
2022-10-21T04:52:36.539Z,10.80
2022-10-21T04:57:34.839Z,10.70
2022-10-21T05:02:34.603Z,10.70
2022-10-21T05:07:32.822Z,10.70
2022-10-21T05:12:30.967Z,10.80
2022-10-21T05:17:29.126Z,10.90
2022-10-21T05:22:28.546Z,10.80
2022-10-21T05:27:26.690Z,10.80
2022-10-21T05:32:24.806Z,10.80
2022-10-21T05:37:22.978Z,10.90
2022-10-21T05:42:22.298Z,10.90
2022-10-21T05:47:21.206Z,10.90
2022-10-21T05:52:19.200Z,10.80
2022-10-21T05:57:17.287Z,10.80
2022-10-21T06:02:16.850Z,10.80
2022-10-21T06:07:14.867Z,10.80
2022-10-21T06:12:12.894Z,10.80
2022-10-21T06:17:10.882Z,10.80
2022-10-21T06:22:10.367Z,10.90
2022-10-21T06:27:08.628Z,10.90
2022-10-21T06:32:06.834Z,11.00
2022-10-21T06:37:05.134Z,11.00
2022-10-21T06:42:04.713Z,11.00
2022-10-21T06:47:11.838Z,11.10
2022-10-21T06:52:10.110Z,11.10
2022-10-21T06:57:09.469Z,11.20
2022-10-21T07:02:07.977Z,11.20
2022-10-21T07:07:06.243Z,11.10
2022-10-21T07:12:04.700Z,11.30
2022-10-21T07:17:04.219Z,11.40
2022-10-21T07:22:02.173Z,11.40
2022-10-21T07:27:00.174Z,11.40
2022-10-21T07:31:59.105Z,11.50
2022-10-21T07:36:58.492Z,11.40
2022-10-21T07:41:59.251Z,11.50
2022-10-21T07:46:57.643Z,11.60
2022-10-21T07:51:55.600Z,11.80
2022-10-21T07:56:55.130Z,11.80
2022-10-21T08:01:53.999Z,11.80
2022-10-21T08:06:52.110Z,11.90
2022-10-21T08:11:50.246Z,12.00
2022-10-21T08:16:52.893Z,12.10
2022-10-21T08:21:51.586Z,12.30
2022-10-21T08:26:49.536Z,12.70
2022-10-21T08:31:48.916Z,13.50
2022-10-21T08:36:46.943Z,13.70
2022-10-21T08:41:57.634Z,13.70
2022-10-21T08:47:03.329Z,13.60
2022-10-21T08:52:05.092Z,13.70
2022-10-21T08:57:03.064Z,13.90
2022-10-21T09:02:15.064Z,13.70
2022-10-21T09:07:21.312Z,13.50
2022-10-21T09:12:30.401Z,13.70
2022-10-21T09:17:46.604Z,14.00
2022-10-21T09:22:52.171Z,15.10
2022-10-21T09:27:56.108Z,16.30
2022-10-21T09:32:59.608Z,17.50
2022-10-21T09:38:01.678Z,18.30
2022-10-21T09:43:02.041Z,18.60
2022-10-21T09:48:04.591Z,17.60
2022-10-21T09:53:07.384Z,16.50
2022-10-21T09:58:05.725Z,16.00
2022-10-21T10:03:05.910Z,16.60
2022-10-21T10:08:27.632Z,18.30
2022-10-21T10:13:27.275Z,21.20
2022-10-21T10:18:26.650Z,21.00
2022-10-21T10:23:24.628Z,19.70
2022-10-21T10:28:26.606Z,18.40
2022-10-21T10:33:29.051Z,18.00
2022-10-21T10:38:30.785Z,17.70
2022-10-21T10:43:31.282Z,18.00
2022-10-21T10:48:37.200Z,19.20
2022-10-21T10:53:36.399Z,21.40
2022-10-21T10:58:37.785Z,23.10
2022-10-21T11:03:51.963Z,24.20
2022-10-21T11:08:55.006Z,25.40
2022-10-21T11:13:54.072Z,25.50
2022-10-21T11:19:00.562Z,23.30
2022-10-21T11:24:26.853Z,20.90
2022-10-21T11:29:37.063Z,19.30
2022-10-21T11:34:45.985Z,18.90
2022-10-21T11:39:54.243Z,18.90
2022-10-21T11:45:06.972Z,18.40
2022-10-21T11:55:35.188Z,18.10
2022-10-21T12:00:42.270Z,18.10
2022-10-21T12:05:52.880Z,18.10
2022-10-21T12:10:55.948Z,17.90
2022-10-21T12:15:59.251Z,17.90
2022-10-21T12:21:00.922Z,17.90
2022-10-21T12:26:13.183Z,17.90
2022-10-21T12:31:32.092Z,17.80
2022-10-21T12:36:43.961Z,17.50
2022-10-21T12:41:42.264Z,17.30
2022-10-21T12:46:43.585Z,17.20
2022-10-21T12:51:49.998Z,17.10
2022-10-21T12:56:50.422Z,16.90
2022-10-21T13:02:27.072Z,16.90
2022-10-21T13:07:39.786Z,16.90
2022-10-21T13:12:37.969Z,16.70
2022-10-21T13:17:53.111Z,16.70
2022-10-21T13:23:01.798Z,16.80
2022-10-21T13:28:09.932Z,16.80
2022-10-21T13:33:15.915Z,16.80
2022-10-21T13:38:23.293Z,16.60
2022-10-21T13:43:28.705Z,16.70
2022-10-21T13:48:26.901Z,16.60
2022-10-21T13:53:29.672Z,16.70
2022-10-21T13:58:30.023Z,16.80
2022-10-21T14:03:28.295Z,16.70
2022-10-21T14:08:31.937Z,16.60
2022-10-21T14:13:35.489Z,16.50
2022-10-21T14:18:37.151Z,16.50
2022-10-21T14:23:36.996Z,16.50
2022-10-21T14:28:35.689Z,16.40
2022-10-21T14:33:34.749Z,16.50
2022-10-21T14:38:39.606Z,16.40
2022-10-21T14:43:39.977Z,16.40
2022-10-21T14:48:41.124Z,16.40
2022-10-21T14:53:49.020Z,16.30
2022-10-21T14:58:52.260Z,16.30
2022-10-21T15:03:52.229Z,16.20
2022-10-21T15:09:17.618Z,16.20
2022-10-21T15:14:23.881Z,16.20
2022-10-21T15:19:25.492Z,16.30
2022-10-21T15:24:31.500Z,16.30
2022-10-21T15:29:34.663Z,16.20
2022-10-21T15:34:32.831Z,16.20
2022-10-21T15:39:32.174Z,16.20
2022-10-21T15:44:31.819Z,16.10
2022-10-21T15:49:33.861Z,16.10
2022-10-21T15:54:33.302Z,16.00
2022-10-21T15:59:33.340Z,16.00
2022-10-21T16:04:31.443Z,16.00
2022-10-21T16:09:30.395Z,15.90
2022-10-21T16:14:31.121Z,15.90
2022-10-21T16:19:30.199Z,15.90
2022-10-21T16:24:28.200Z,15.90
2022-10-21T16:29:26.796Z,15.90
2022-10-21T16:34:26.108Z,15.90
2022-10-21T16:39:25.408Z,15.80
2022-10-21T16:44:23.389Z,15.80
2022-10-21T16:49:23.964Z,15.80
2022-10-21T16:54:25.012Z,15.80
2022-10-21T16:59:22.983Z,15.80
2022-10-21T17:04:20.903Z,15.70
2022-10-21T17:09:19.777Z,15.70
2022-10-21T17:14:21.256Z,15.80
2022-10-21T17:19:19.272Z,15.80
2022-10-21T17:24:19.006Z,15.80
2022-10-21T17:29:19.479Z,15.80
2022-10-21T17:34:26.726Z,15.80
2022-10-21T17:39:24.806Z,15.80
2022-10-21T17:44:24.127Z,15.80
2022-10-21T17:49:22.782Z,15.80
2022-10-21T17:54:24.227Z,15.70
2022-10-21T17:59:27.338Z,15.70
2022-10-21T18:04:25.287Z,15.80
2022-10-21T18:09:23.325Z,15.80
2022-10-21T18:14:21.406Z,15.90
2022-10-21T18:19:20.672Z,15.90
2022-10-21T18:24:18.673Z,15.90
2022-10-21T18:29:16.666Z,15.90
2022-10-21T18:34:14.754Z,15.90
2022-10-21T18:39:14.760Z,15.90
2022-10-21T18:44:14.702Z,15.90
2022-10-21T18:49:14.803Z,15.90
2022-10-21T18:54:15.141Z,15.80
2022-10-21T18:59:13.131Z,15.80
2022-10-21T19:04:14.749Z,15.80
2022-10-21T19:09:16.036Z,15.90
2022-10-21T19:14:15.223Z,15.90
2022-10-21T19:19:14.680Z,15.90
2022-10-21T19:24:14.072Z,16.00
2022-10-21T19:29:14.217Z,16.00
2022-10-21T19:34:13.436Z,16.00
2022-10-21T19:39:11.548Z,16.00
2022-10-21T19:44:10.845Z,15.90
2022-10-21T19:49:09.910Z,15.90
2022-10-21T19:54:10.218Z,15.90
2022-10-21T19:59:11.225Z,15.90
2022-10-21T20:04:09.353Z,15.90
2022-10-21T20:09:09.737Z,15.90
2022-10-21T20:14:08.085Z,16.00
2022-10-21T20:19:08.064Z,15.90
2022-10-21T20:24:06.935Z,16.00
2022-10-21T20:29:05.161Z,16.10
2022-10-21T20:34:03.070Z,16.00
2022-10-21T20:39:03.624Z,15.90
2022-10-21T20:44:02.324Z,15.90
2022-10-21T20:49:00.326Z,16.00
2022-10-21T20:54:00.347Z,15.90
2022-10-21T20:59:00.783Z,15.90
2022-10-21T21:04:00.713Z,15.90
2022-10-21T21:09:22.517Z,15.90
2022-10-21T21:14:18.156Z,15.90
2022-10-21T21:19:16.066Z,15.80
2022-10-21T21:24:14.149Z,15.80
2022-10-21T21:29:12.799Z,15.80
2022-10-21T21:34:12.693Z,15.80
2022-10-21T21:44:16.147Z,15.80
2022-10-21T21:49:15.584Z,15.80
2022-10-21T21:54:13.609Z,15.80
2022-10-21T21:59:11.585Z,15.90
2022-10-21T22:04:10.525Z,15.90
2022-10-21T22:09:12.039Z,15.80
2022-10-21T22:14:10.176Z,15.80
2022-10-21T22:19:08.310Z,15.80
2022-10-21T22:24:06.743Z,15.80
2022-10-21T22:29:06.063Z,15.80
2022-10-21T22:34:06.522Z,15.80
2022-10-21T22:39:07.394Z,15.70
2022-10-21T22:44:06.748Z,15.70
2022-10-21T22:49:05.529Z,15.60
2022-10-21T22:54:03.435Z,15.60
2022-10-21T22:59:01.619Z,15.60
2022-10-21T23:04:03.105Z,15.60
2022-10-21T23:09:02.411Z,15.60
2022-10-21T23:14:08.568Z,15.70
2022-10-21T23:19:09.334Z,15.70
2022-10-21T23:24:08.130Z,15.70
2022-10-21T23:29:06.450Z,15.70
2022-10-21T23:34:05.978Z,15.70
2022-10-21T23:39:05.762Z,15.80
2022-10-21T23:44:03.772Z,15.80
2022-10-21T23:49:01.701Z,15.80
2022-10-21T23:53:59.748Z,15.80
2022-10-21T23:59:00.988Z,15.80
